sensor_id;sensor_type;location;lat;lon;timestamp;temperature;humidity
5779;DHT22;2916;49.798;10.022;2023-09-18T00:02:26;21.00;1.00
5779;DHT22;2916;49.798;10.022;2023-09-18T00:04:56;21.00;1.00
5779;DHT22;2916;49.798;10.022;2023-09-18T00:07:25;21.00;1.00
5779;DHT22;2916;49.798;10.022;2023-09-18T00:09:52;20.90;1.00
5779;DHT22;2916;49.798;10.022;2023-09-18T00:12:19;20.90;1.00
5779;DHT22;2916;49.798;10.022;2023-09-18T00:14:48;20.90;1.00
5779;DHT22;2916;49.798;10.022;2023-09-18T00:17:15;20.80;1.00
5779;DHT22;2916;49.798;10.022;2023-09-18T00:19:44;20.70;1.00
5779;DHT22;2916;49.798;10.022;2023-09-18T00:22:12;20.70;1.00
5779;DHT22;2916;49.798;10.022;2023-09-18T00:24:40;20.80;1.00
5779;DHT22;2916;49.798;10.022;2023-09-18T00:27:07;20.80;1.00
5779;DHT22;2916;49.798;10.022;2023-09-18T00:29:36;20.70;1.00
5779;DHT22;2916;49.798;10.022;2023-09-18T00:32:04;20.80;1.00
5779;DHT22;2916;49.798;10.022;2023-09-18T00:34:31;20.80;1.00
5779;DHT22;2916;49.798;10.022;2023-09-18T00:36:58;20.80;1.00
5779;DHT22;2916;49.798;10.022;2023-09-18T00:39:25;20.60;1.00
5779;DHT22;2916;49.798;10.022;2023-09-18T00:41:54;20.40;1.00
5779;DHT22;2916;49.798;10.022;2023-09-18T00:44:21;20.20;1.00
5779;DHT22;2916;49.798;10.022;2023-09-18T00:46:49;20.20;1.00
5779;DHT22;2916;49.798;10.022;2023-09-18T00:49:17;20.10;1.00
5779;DHT22;2916;49.798;10.022;2023-09-18T00:51:46;20.00;1.00
5779;DHT22;2916;49.798;10.022;2023-09-18T00:54:15;20.00;1.00
5779;DHT22;2916;49.798;10.022;2023-09-18T00:56:45;20.00;1.00
5779;DHT22;2916;49.798;10.022;2023-09-18T00:59:15;20.00;1.00
5779;DHT22;2916;49.798;10.022;2023-09-18T01:01:42;20.10;1.00
5779;DHT22;2916;49.798;10.022;2023-09-18T01:04:11;20.10;1.00
5779;DHT22;2916;49.798;10.022;2023-09-18T01:06:39;20.10;1.00
5779;DHT22;2916;49.798;10.022;2023-09-18T01:09:06;19.90;1.00
5779;DHT22;2916;49.798;10.022;2023-09-18T01:11:44;19.90;1.00
5779;DHT22;2916;49.798;10.022;2023-09-18T01:14:25;19.80;1.00
5779;DHT22;2916;49.798;10.022;2023-09-18T01:16:59;19.70;1.00
5779;DHT22;2916;49.798;10.022;2023-09-18T01:19:37;19.70;1.00
5779;DHT22;2916;49.798;10.022;2023-09-18T01:22:06;19.60;3.10
5779;DHT22;2916;49.798;10.022;2023-09-18T01:24:36;19.60;9.30
5779;DHT22;2916;49.798;10.022;2023-09-18T01:27:08;19.50;7.30
5779;DHT22;2916;49.798;10.022;2023-09-18T01:29:36;19.50;9.00
5779;DHT22;2916;49.798;10.022;2023-09-18T01:32:04;19.50;10.50
5779;DHT22;2916;49.798;10.022;2023-09-18T01:34:34;19.40;9.50
5779;DHT22;2916;49.798;10.022;2023-09-18T01:37:04;19.40;10.10
5779;DHT22;2916;49.798;10.022;2023-09-18T01:39:35;19.40;9.00
5779;DHT22;2916;49.798;10.022;2023-09-18T01:42:04;19.40;12.90
5779;DHT22;2916;49.798;10.022;2023-09-18T01:44:35;19.30;9.80
5779;DHT22;2916;49.798;10.022;2023-09-18T01:47:04;19.30;11.10
5779;DHT22;2916;49.798;10.022;2023-09-18T01:49:34;19.30;20.30
5779;DHT22;2916;49.798;10.022;2023-09-18T01:52:03;19.30;16.40
5779;DHT22;2916;49.798;10.022;2023-09-18T01:54:33;19.30;25.20
5779;DHT22;2916;49.798;10.022;2023-09-18T01:57:03;19.30;29.10
5779;DHT22;2916;49.798;10.022;2023-09-18T01:59:33;19.40;31.70
5779;DHT22;2916;49.798;10.022;2023-09-18T02:02:01;19.30;26.40
5779;DHT22;2916;49.798;10.022;2023-09-18T02:04:29;19.30;28.10
5779;DHT22;2916;49.798;10.022;2023-09-18T02:06:57;19.20;24.50
5779;DHT22;2916;49.798;10.022;2023-09-18T02:09:24;19.20;26.70
5779;DHT22;2916;49.798;10.022;2023-09-18T02:11:52;19.20;32.70
5779;DHT22;2916;49.798;10.022;2023-09-18T02:14:20;19.30;44.50
5779;DHT22;2916;49.798;10.022;2023-09-18T02:16:47;19.30;43.30
5779;DHT22;2916;49.798;10.022;2023-09-18T02:19:15;19.30;44.10
5779;DHT22;2916;49.798;10.022;2023-09-18T02:21:42;19.30;47.60
5779;DHT22;2916;49.798;10.022;2023-09-18T02:24:09;19.40;53.00
5779;DHT22;2916;49.798;10.022;2023-09-18T02:26:37;19.40;54.80
5779;DHT22;2916;49.798;10.022;2023-09-18T02:29:07;19.40;55.70
5779;DHT22;2916;49.798;10.022;2023-09-18T02:31:38;19.40;56.80
5779;DHT22;2916;49.798;10.022;2023-09-18T02:34:05;19.30;59.50
5779;DHT22;2916;49.798;10.022;2023-09-18T02:36:34;19.40;60.20
5779;DHT22;2916;49.798;10.022;2023-09-18T02:39:01;19.40;62.10
5779;DHT22;2916;49.798;10.022;2023-09-18T02:41:29;19.40;61.90
5779;DHT22;2916;49.798;10.022;2023-09-18T02:43:56;19.40;63.00
5779;DHT22;2916;49.798;10.022;2023-09-18T02:46:23;19.40;63.70
5779;DHT22;2916;49.798;10.022;2023-09-18T02:48:51;19.40;64.00
5779;DHT22;2916;49.798;10.022;2023-09-18T02:51:18;19.40;65.10
5779;DHT22;2916;49.798;10.022;2023-09-18T02:53:45;19.40;63.90
5779;DHT22;2916;49.798;10.022;2023-09-18T02:56:12;19.40;65.10
5779;DHT22;2916;49.798;10.022;2023-09-18T02:58:40;19.40;64.20
5779;DHT22;2916;49.798;10.022;2023-09-18T03:01:07;19.40;63.40
5779;DHT22;2916;49.798;10.022;2023-09-18T03:03:34;19.40;63.60
5779;DHT22;2916;49.798;10.022;2023-09-18T03:06:03;19.40;64.60
5779;DHT22;2916;49.798;10.022;2023-09-18T03:08:32;19.40;66.30
5779;DHT22;2916;49.798;10.022;2023-09-18T03:10:59;19.40;67.20
5779;DHT22;2916;49.798;10.022;2023-09-18T03:13:27;19.40;67.20
5779;DHT22;2916;49.798;10.022;2023-09-18T03:15:55;19.40;67.10
5779;DHT22;2916;49.798;10.022;2023-09-18T03:18:22;19.50;67.30
5779;DHT22;2916;49.798;10.022;2023-09-18T03:20:49;19.50;67.20
5779;DHT22;2916;49.798;10.022;2023-09-18T03:23:17;19.50;64.10
5779;DHT22;2916;49.798;10.022;2023-09-18T03:25:45;19.50;62.90
5779;DHT22;2916;49.798;10.022;2023-09-18T03:28:13;19.50;64.00
5779;DHT22;2916;49.798;10.022;2023-09-18T03:30:40;19.50;63.10
5779;DHT22;2916;49.798;10.022;2023-09-18T03:33:07;19.30;60.60
5779;DHT22;2916;49.798;10.022;2023-09-18T03:35:45;19.30;58.80
5779;DHT22;2916;49.798;10.022;2023-09-18T03:38:13;19.30;59.00
5779;DHT22;2916;49.798;10.022;2023-09-18T03:40:42;19.30;58.10
5779;DHT22;2916;49.798;10.022;2023-09-18T03:43:10;19.30;57.30
5779;DHT22;2916;49.798;10.022;2023-09-18T03:45:38;19.30;54.10
5779;DHT22;2916;49.798;10.022;2023-09-18T03:48:06;19.30;56.10
5779;DHT22;2916;49.798;10.022;2023-09-18T03:50:33;19.20;58.90
5779;DHT22;2916;49.798;10.022;2023-09-18T03:53:00;19.20;62.60
5779;DHT22;2916;49.798;10.022;2023-09-18T03:55:27;19.20;68.50
5779;DHT22;2916;49.798;10.022;2023-09-18T03:57:57;19.20;75.20
5779;DHT22;2916;49.798;10.022;2023-09-18T04:00:24;19.10;93.20
5779;DHT22;2916;49.798;10.022;2023-09-18T04:02:51;19.00;99.90
5779;DHT22;2916;49.798;10.022;2023-09-18T04:05:18;19.00;99.90
5779;DHT22;2916;49.798;10.022;2023-09-18T04:07:45;19.00;99.90
5779;DHT22;2916;49.798;10.022;2023-09-18T04:10:13;19.00;99.90
5779;DHT22;2916;49.798;10.022;2023-09-18T04:12:45;18.90;99.90
5779;DHT22;2916;49.798;10.022;2023-09-18T04:15:15;18.90;99.90
5779;DHT22;2916;49.798;10.022;2023-09-18T04:17:43;19.00;99.90
5779;DHT22;2916;49.798;10.022;2023-09-18T04:20:11;18.90;99.90
5779;DHT22;2916;49.798;10.022;2023-09-18T04:22:44;19.00;99.90
5779;DHT22;2916;49.798;10.022;2023-09-18T04:25:15;18.90;99.90
5779;DHT22;2916;49.798;10.022;2023-09-18T04:27:42;18.80;99.90
5779;DHT22;2916;49.798;10.022;2023-09-18T04:30:10;18.90;99.90
5779;DHT22;2916;49.798;10.022;2023-09-18T04:32:39;18.70;99.90
5779;DHT22;2916;49.798;10.022;2023-09-18T04:35:07;18.70;99.90
5779;DHT22;2916;49.798;10.022;2023-09-18T04:37:37;18.70;99.90
5779;DHT22;2916;49.798;10.022;2023-09-18T04:40:06;18.70;99.90
5779;DHT22;2916;49.798;10.022;2023-09-18T04:42:37;18.80;99.90
5779;DHT22;2916;49.798;10.022;2023-09-18T04:45:06;18.80;99.90
5779;DHT22;2916;49.798;10.022;2023-09-18T04:47:33;18.80;99.90
5779;DHT22;2916;49.798;10.022;2023-09-18T04:50:02;18.80;99.90
5779;DHT22;2916;49.798;10.022;2023-09-18T04:52:31;18.80;99.90
5779;DHT22;2916;49.798;10.022;2023-09-18T04:54:58;18.80;99.90
5779;DHT22;2916;49.798;10.022;2023-09-18T04:57:25;18.80;99.90
5779;DHT22;2916;49.798;10.022;2023-09-18T04:59:52;18.80;99.90
5779;DHT22;2916;49.798;10.022;2023-09-18T05:02:19;18.80;99.90
5779;DHT22;2916;49.798;10.022;2023-09-18T05:04:46;18.70;99.90
5779;DHT22;2916;49.798;10.022;2023-09-18T05:07:15;18.70;99.90
5779;DHT22;2916;49.798;10.022;2023-09-18T05:09:42;18.70;99.90
5779;DHT22;2916;49.798;10.022;2023-09-18T05:12:09;18.70;99.90
5779;DHT22;2916;49.798;10.022;2023-09-18T05:14:39;18.70;99.90
5779;DHT22;2916;49.798;10.022;2023-09-18T05:17:09;18.80;99.90
5779;DHT22;2916;49.798;10.022;2023-09-18T05:19:37;18.80;99.90
5779;DHT22;2916;49.798;10.022;2023-09-18T05:22:04;18.80;99.90
5779;DHT22;2916;49.798;10.022;2023-09-18T05:24:33;18.70;99.90
5779;DHT22;2916;49.798;10.022;2023-09-18T05:27:00;18.80;99.90
5779;DHT22;2916;49.798;10.022;2023-09-18T05:29:28;18.80;99.90
5779;DHT22;2916;49.798;10.022;2023-09-18T05:31:55;18.80;99.90
5779;DHT22;2916;49.798;10.022;2023-09-18T05:34:22;18.80;99.90
5779;DHT22;2916;49.798;10.022;2023-09-18T05:36:49;18.80;99.90
5779;DHT22;2916;49.798;10.022;2023-09-18T05:39:17;18.80;99.90
5779;DHT22;2916;49.798;10.022;2023-09-18T05:41:46;18.80;99.90
5779;DHT22;2916;49.798;10.022;2023-09-18T05:44:14;18.80;99.90
5779;DHT22;2916;49.798;10.022;2023-09-18T05:46:41;18.90;99.90
5779;DHT22;2916;49.798;10.022;2023-09-18T05:49:08;18.80;99.90
5779;DHT22;2916;49.798;10.022;2023-09-18T05:51:35;18.80;99.90
5779;DHT22;2916;49.798;10.022;2023-09-18T05:54:03;18.80;99.90
5779;DHT22;2916;49.798;10.022;2023-09-18T05:56:30;18.90;99.90
5779;DHT22;2916;49.798;10.022;2023-09-18T05:58:58;19.00;99.90
5779;DHT22;2916;49.798;10.022;2023-09-18T06:01:25;19.00;99.90
5779;DHT22;2916;49.798;10.022;2023-09-18T06:03:53;19.00;99.90
5779;DHT22;2916;49.798;10.022;2023-09-18T06:06:20;19.00;99.90
5779;DHT22;2916;49.798;10.022;2023-09-18T06:08:47;18.90;99.90
5779;DHT22;2916;49.798;10.022;2023-09-18T06:11:14;18.80;99.90
5779;DHT22;2916;49.798;10.022;2023-09-18T06:13:41;18.80;99.90
5779;DHT22;2916;49.798;10.022;2023-09-18T06:16:10;18.90;99.90
5779;DHT22;2916;49.798;10.022;2023-09-18T06:18:37;18.90;99.90
5779;DHT22;2916;49.798;10.022;2023-09-18T06:21:04;18.70;99.90
5779;DHT22;2916;49.798;10.022;2023-09-18T06:23:31;18.70;99.90
5779;DHT22;2916;49.798;10.022;2023-09-18T06:25:59;18.80;99.90
5779;DHT22;2916;49.798;10.022;2023-09-18T06:28:27;18.80;99.90
5779;DHT22;2916;49.798;10.022;2023-09-18T06:30:54;18.90;99.90
5779;DHT22;2916;49.798;10.022;2023-09-18T06:33:22;18.90;99.90
5779;DHT22;2916;49.798;10.022;2023-09-18T06:35:49;18.90;99.90
5779;DHT22;2916;49.798;10.022;2023-09-18T06:38:17;19.00;99.90
5779;DHT22;2916;49.798;10.022;2023-09-18T06:40:46;19.10;99.90
5779;DHT22;2916;49.798;10.022;2023-09-18T06:43:13;19.20;99.90
5779;DHT22;2916;49.798;10.022;2023-09-18T06:45:40;19.30;99.90
5779;DHT22;2916;49.798;10.022;2023-09-18T06:48:07;19.40;99.90
5779;DHT22;2916;49.798;10.022;2023-09-18T06:50:36;19.30;99.90
5779;DHT22;2916;49.798;10.022;2023-09-18T06:53:04;19.30;99.90
5779;DHT22;2916;49.798;10.022;2023-09-18T06:55:31;19.40;99.90
5779;DHT22;2916;49.798;10.022;2023-09-18T06:57:58;19.40;99.90
5779;DHT22;2916;49.798;10.022;2023-09-18T07:00:25;19.40;99.90
5779;DHT22;2916;49.798;10.022;2023-09-18T07:02:52;19.50;99.90
5779;DHT22;2916;49.798;10.022;2023-09-18T07:05:19;19.60;99.90
5779;DHT22;2916;49.798;10.022;2023-09-18T07:07:47;19.70;99.90
5779;DHT22;2916;49.798;10.022;2023-09-18T07:10:15;19.70;99.90
5779;DHT22;2916;49.798;10.022;2023-09-18T07:12:42;19.70;99.90
5779;DHT22;2916;49.798;10.022;2023-09-18T07:15:09;19.70;99.90
5779;DHT22;2916;49.798;10.022;2023-09-18T07:17:36;19.60;99.90
5779;DHT22;2916;49.798;10.022;2023-09-18T07:20:04;19.70;99.90
5779;DHT22;2916;49.798;10.022;2023-09-18T07:22:39;19.90;99.90
5779;DHT22;2916;49.798;10.022;2023-09-18T07:25:08;19.90;99.90
5779;DHT22;2916;49.798;10.022;2023-09-18T07:27:35;19.90;99.90
5779;DHT22;2916;49.798;10.022;2023-09-18T07:30:05;20.00;99.90
5779;DHT22;2916;49.798;10.022;2023-09-18T07:32:33;20.00;99.90
5779;DHT22;2916;49.798;10.022;2023-09-18T07:35:00;20.10;99.90
5779;DHT22;2916;49.798;10.022;2023-09-18T07:37:27;20.00;99.90
5779;DHT22;2916;49.798;10.022;2023-09-18T07:39:54;20.00;99.90
5779;DHT22;2916;49.798;10.022;2023-09-18T07:42:25;20.00;99.90
5779;DHT22;2916;49.798;10.022;2023-09-18T07:44:53;20.00;99.90
5779;DHT22;2916;49.798;10.022;2023-09-18T07:47:20;20.10;99.90
5779;DHT22;2916;49.798;10.022;2023-09-18T07:49:48;20.10;99.90
5779;DHT22;2916;49.798;10.022;2023-09-18T07:52:16;20.10;99.90
5779;DHT22;2916;49.798;10.022;2023-09-18T07:54:43;20.20;99.90
5779;DHT22;2916;49.798;10.022;2023-09-18T07:57:10;20.20;99.90
5779;DHT22;2916;49.798;10.022;2023-09-18T07:59:38;20.20;99.90
5779;DHT22;2916;49.798;10.022;2023-09-18T08:02:07;20.20;99.90
5779;DHT22;2916;49.798;10.022;2023-09-18T08:04:35;20.20;99.90
5779;DHT22;2916;49.798;10.022;2023-09-18T08:07:02;20.20;99.90
5779;DHT22;2916;49.798;10.022;2023-09-18T08:09:31;20.20;99.90
5779;DHT22;2916;49.798;10.022;2023-09-18T08:12:01;20.20;99.90
5779;DHT22;2916;49.798;10.022;2023-09-18T08:14:29;20.20;99.90
5779;DHT22;2916;49.798;10.022;2023-09-18T08:16:58;20.30;99.90
5779;DHT22;2916;49.798;10.022;2023-09-18T08:19:26;20.20;99.90
5779;DHT22;2916;49.798;10.022;2023-09-18T08:21:53;20.30;99.90
5779;DHT22;2916;49.798;10.022;2023-09-18T08:24:21;20.30;99.90
5779;DHT22;2916;49.798;10.022;2023-09-18T08:26:49;20.40;99.90
5779;DHT22;2916;49.798;10.022;2023-09-18T08:29:16;20.50;99.90
5779;DHT22;2916;49.798;10.022;2023-09-18T08:31:43;20.50;99.90
5779;DHT22;2916;49.798;10.022;2023-09-18T08:34:12;20.50;99.90
5779;DHT22;2916;49.798;10.022;2023-09-18T08:36:39;20.60;99.90
5779;DHT22;2916;49.798;10.022;2023-09-18T08:39:06;20.60;99.90
5779;DHT22;2916;49.798;10.022;2023-09-18T08:41:36;20.70;99.90
5779;DHT22;2916;49.798;10.022;2023-09-18T08:44:08;20.80;99.90
5779;DHT22;2916;49.798;10.022;2023-09-18T08:46:36;20.80;99.90
5779;DHT22;2916;49.798;10.022;2023-09-18T08:49:05;20.90;99.90
5779;DHT22;2916;49.798;10.022;2023-09-18T08:51:36;20.90;99.90
5779;DHT22;2916;49.798;10.022;2023-09-18T08:54:05;20.90;99.90
5779;DHT22;2916;49.798;10.022;2023-09-18T08:56:33;20.90;99.90
5779;DHT22;2916;49.798;10.022;2023-09-18T08:59:01;20.90;99.90
5779;DHT22;2916;49.798;10.022;2023-09-18T09:01:28;20.90;99.90
5779;DHT22;2916;49.798;10.022;2023-09-18T09:03:55;20.80;99.90
5779;DHT22;2916;49.798;10.022;2023-09-18T09:06:22;20.80;99.90
5779;DHT22;2916;49.798;10.022;2023-09-18T09:08:51;20.80;99.90
5779;DHT22;2916;49.798;10.022;2023-09-18T09:11:18;20.80;99.90
5779;DHT22;2916;49.798;10.022;2023-09-18T09:13:46;20.80;99.90
5779;DHT22;2916;49.798;10.022;2023-09-18T09:16:13;20.80;99.90
5779;DHT22;2916;49.798;10.022;2023-09-18T09:18:50;20.80;99.90
5779;DHT22;2916;49.798;10.022;2023-09-18T09:21:18;20.70;99.90
5779;DHT22;2916;49.798;10.022;2023-09-18T09:23:47;20.70;99.90
5779;DHT22;2916;49.798;10.022;2023-09-18T09:26:20;20.80;99.90
5779;DHT22;2916;49.798;10.022;2023-09-18T09:28:49;20.80;99.90
5779;DHT22;2916;49.798;10.022;2023-09-18T09:31:24;20.80;99.90
5779;DHT22;2916;49.798;10.022;2023-09-18T09:33:53;20.90;99.90
5779;DHT22;2916;49.798;10.022;2023-09-18T09:36:21;21.10;99.90
5779;DHT22;2916;49.798;10.022;2023-09-18T09:38:54;21.10;99.90
5779;DHT22;2916;49.798;10.022;2023-09-18T09:41:25;21.30;99.90
5779;DHT22;2916;49.798;10.022;2023-09-18T09:43:53;21.50;99.90
5779;DHT22;2916;49.798;10.022;2023-09-18T09:46:21;21.70;99.90
5779;DHT22;2916;49.798;10.022;2023-09-18T09:49:01;21.80;99.90
5779;DHT22;2916;49.798;10.022;2023-09-18T09:51:29;21.80;99.90
5779;DHT22;2916;49.798;10.022;2023-09-18T09:53:56;22.00;99.90
5779;DHT22;2916;49.798;10.022;2023-09-18T09:56:41;22.00;99.90
5779;DHT22;2916;49.798;10.022;2023-09-18T09:59:11;22.00;94.40
5779;DHT22;2916;49.798;10.022;2023-09-18T10:01:40;21.90;88.90
5779;DHT22;2916;49.798;10.022;2023-09-18T10:04:11;21.80;89.10
5779;DHT22;2916;49.798;10.022;2023-09-18T10:06:43;21.70;87.60
5779;DHT22;2916;49.798;10.022;2023-09-18T10:09:13;21.80;89.20
5779;DHT22;2916;49.798;10.022;2023-09-18T10:11:45;21.60;87.10
5779;DHT22;2916;49.798;10.022;2023-09-18T10:14:19;21.60;93.30
5779;DHT22;2916;49.798;10.022;2023-09-18T10:16:56;21.60;94.80
5779;DHT22;2916;49.798;10.022;2023-09-18T10:19:28;21.60;94.30
5779;DHT22;2916;49.798;10.022;2023-09-18T10:22:11;21.50;99.90
5779;DHT22;2916;49.798;10.022;2023-09-18T10:24:50;21.30;99.90
5779;DHT22;2916;49.798;10.022;2023-09-18T10:27:27;21.20;99.90
5779;DHT22;2916;49.798;10.022;2023-09-18T10:29:57;21.20;99.90
5779;DHT22;2916;49.798;10.022;2023-09-18T10:32:30;21.10;99.90
5779;DHT22;2916;49.798;10.022;2023-09-18T10:34:59;21.00;99.90
5779;DHT22;2916;49.798;10.022;2023-09-18T10:37:28;21.00;99.90
5779;DHT22;2916;49.798;10.022;2023-09-18T10:39:59;20.90;99.90
5779;DHT22;2916;49.798;10.022;2023-09-18T10:42:29;20.90;99.90
5779;DHT22;2916;49.798;10.022;2023-09-18T10:44:58;20.80;99.90
5779;DHT22;2916;49.798;10.022;2023-09-18T10:47:27;20.80;99.90
5779;DHT22;2916;49.798;10.022;2023-09-18T10:49:54;20.80;99.90
5779;DHT22;2916;49.798;10.022;2023-09-18T10:52:21;20.60;99.90
5779;DHT22;2916;49.798;10.022;2023-09-18T10:54:49;20.50;99.90
5779;DHT22;2916;49.798;10.022;2023-09-18T10:57:16;20.50;99.90
5779;DHT22;2916;49.798;10.022;2023-09-18T10:59:45;20.50;99.90
5779;DHT22;2916;49.798;10.022;2023-09-18T11:02:14;20.40;99.90
5779;DHT22;2916;49.798;10.022;2023-09-18T11:04:41;20.30;99.90
5779;DHT22;2916;49.798;10.022;2023-09-18T11:07:09;20.40;99.90
5779;DHT22;2916;49.798;10.022;2023-09-18T11:09:46;20.30;99.90
5779;DHT22;2916;49.798;10.022;2023-09-18T11:12:15;20.20;99.90
5779;DHT22;2916;49.798;10.022;2023-09-18T11:14:58;20.20;99.90
5779;DHT22;2916;49.798;10.022;2023-09-18T11:17:34;20.20;99.90
5779;DHT22;2916;49.798;10.022;2023-09-18T11:20:09;20.30;99.90
5779;DHT22;2916;49.798;10.022;2023-09-18T11:22:47;20.30;99.90
5779;DHT22;2916;49.798;10.022;2023-09-18T11:25:39;20.30;99.90
5779;DHT22;2916;49.798;10.022;2023-09-18T11:28:08;20.30;99.90
5779;DHT22;2916;49.798;10.022;2023-09-18T11:30:50;20.50;99.90
5779;DHT22;2916;49.798;10.022;2023-09-18T11:33:33;20.50;99.90
5779;DHT22;2916;49.798;10.022;2023-09-18T11:36:04;20.40;99.90
5779;DHT22;2916;49.798;10.022;2023-09-18T11:38:34;20.40;99.90
5779;DHT22;2916;49.798;10.022;2023-09-18T11:41:20;20.30;99.90
5779;DHT22;2916;49.798;10.022;2023-09-18T11:43:49;20.40;99.90
5779;DHT22;2916;49.798;10.022;2023-09-18T11:46:19;20.50;99.90
5779;DHT22;2916;49.798;10.022;2023-09-18T11:48:48;20.50;99.90
5779;DHT22;2916;49.798;10.022;2023-09-18T11:51:22;20.60;99.90
5779;DHT22;2916;49.798;10.022;2023-09-18T11:53:55;20.40;99.90
5779;DHT22;2916;49.798;10.022;2023-09-18T11:56:24;20.40;99.90
5779;DHT22;2916;49.798;10.022;2023-09-18T11:58:51;20.40;99.90
5779;DHT22;2916;49.798;10.022;2023-09-18T12:01:21;20.40;99.90
5779;DHT22;2916;49.798;10.022;2023-09-18T12:03:53;20.30;99.90
5779;DHT22;2916;49.798;10.022;2023-09-18T12:06:21;20.40;99.90
5779;DHT22;2916;49.798;10.022;2023-09-18T12:08:51;20.40;99.90
5779;DHT22;2916;49.798;10.022;2023-09-18T12:11:18;20.40;99.90
5779;DHT22;2916;49.798;10.022;2023-09-18T12:13:50;20.40;99.90
5779;DHT22;2916;49.798;10.022;2023-09-18T12:16:17;20.40;99.90
5779;DHT22;2916;49.798;10.022;2023-09-18T12:18:47;20.40;99.90
5779;DHT22;2916;49.798;10.022;2023-09-18T12:21:15;20.50;99.90
5779;DHT22;2916;49.798;10.022;2023-09-18T12:23:44;20.50;99.90
5779;DHT22;2916;49.798;10.022;2023-09-18T12:26:13;20.50;99.90
5779;DHT22;2916;49.798;10.022;2023-09-18T12:28:44;20.50;99.90
5779;DHT22;2916;49.798;10.022;2023-09-18T12:31:11;20.50;99.90
5779;DHT22;2916;49.798;10.022;2023-09-18T12:33:40;20.50;99.90
5779;DHT22;2916;49.798;10.022;2023-09-18T12:36:10;20.50;99.90
5779;DHT22;2916;49.798;10.022;2023-09-18T12:38:40;20.60;99.90
5779;DHT22;2916;49.798;10.022;2023-09-18T12:41:07;20.60;99.90
5779;DHT22;2916;49.798;10.022;2023-09-18T12:43:37;20.70;99.90
5779;DHT22;2916;49.798;10.022;2023-09-18T12:46:05;20.70;99.90
5779;DHT22;2916;49.798;10.022;2023-09-18T12:48:37;20.70;99.90
5779;DHT22;2916;49.798;10.022;2023-09-18T12:51:07;20.70;99.90
5779;DHT22;2916;49.798;10.022;2023-09-18T12:53:36;20.80;99.90
5779;DHT22;2916;49.798;10.022;2023-09-18T12:56:08;20.90;99.90
5779;DHT22;2916;49.798;10.022;2023-09-18T12:58:36;20.90;99.90
5779;DHT22;2916;49.798;10.022;2023-09-18T13:01:05;21.00;99.90
5779;DHT22;2916;49.798;10.022;2023-09-18T13:03:42;21.00;99.90
5779;DHT22;2916;49.798;10.022;2023-09-18T13:06:14;20.90;99.90
5779;DHT22;2916;49.798;10.022;2023-09-18T13:08:44;20.90;99.90
5779;DHT22;2916;49.798;10.022;2023-09-18T13:11:12;21.00;99.90
5779;DHT22;2916;49.798;10.022;2023-09-18T13:13:41;20.90;99.90
5779;DHT22;2916;49.798;10.022;2023-09-18T13:16:09;21.00;99.90
5779;DHT22;2916;49.798;10.022;2023-09-18T13:18:37;21.00;99.90
5779;DHT22;2916;49.798;10.022;2023-09-18T13:21:13;21.00;99.90
5779;DHT22;2916;49.798;10.022;2023-09-18T13:23:40;21.00;99.70
5779;DHT22;2916;49.798;10.022;2023-09-18T13:26:08;21.00;95.30
5779;DHT22;2916;49.798;10.022;2023-09-18T13:28:36;21.00;93.90
5779;DHT22;2916;49.798;10.022;2023-09-18T13:31:05;21.00;91.90
5779;DHT22;2916;49.798;10.022;2023-09-18T13:33:33;21.00;89.30
5779;DHT22;2916;49.798;10.022;2023-09-18T13:36:05;21.00;81.40
5779;DHT22;2916;49.798;10.022;2023-09-18T13:38:33;21.10;80.00
5779;DHT22;2916;49.798;10.022;2023-09-18T13:41:00;21.10;79.80
5779;DHT22;2916;49.798;10.022;2023-09-18T13:43:30;21.00;71.60
5779;DHT22;2916;49.798;10.022;2023-09-18T13:46:00;21.20;71.50
5779;DHT22;2916;49.798;10.022;2023-09-18T13:48:30;21.20;67.60
5779;DHT22;2916;49.798;10.022;2023-09-18T13:50:58;21.10;61.20
5779;DHT22;2916;49.798;10.022;2023-09-18T13:53:27;21.10;62.00
5779;DHT22;2916;49.798;10.022;2023-09-18T13:55:56;21.20;62.30
5779;DHT22;2916;49.798;10.022;2023-09-18T13:58:23;21.10;54.60
5779;DHT22;2916;49.798;10.022;2023-09-18T14:00:51;21.10;59.20
5779;DHT22;2916;49.798;10.022;2023-09-18T14:03:19;21.20;55.80
5779;DHT22;2916;49.798;10.022;2023-09-18T14:05:46;21.10;55.50
5779;DHT22;2916;49.798;10.022;2023-09-18T14:08:13;21.10;58.00
5779;DHT22;2916;49.798;10.022;2023-09-18T14:10:42;20.90;58.50
5779;DHT22;2916;49.798;10.022;2023-09-18T14:13:11;20.90;53.90
5779;DHT22;2916;49.798;10.022;2023-09-18T14:15:38;21.00;58.70
5779;DHT22;2916;49.798;10.022;2023-09-18T14:18:05;21.00;55.00
5779;DHT22;2916;49.798;10.022;2023-09-18T14:20:32;20.90;59.50
5779;DHT22;2916;49.798;10.022;2023-09-18T14:22:59;21.00;60.00
5779;DHT22;2916;49.798;10.022;2023-09-18T14:25:26;21.00;60.80
5779;DHT22;2916;49.798;10.022;2023-09-18T14:27:53;21.00;53.70
5779;DHT22;2916;49.798;10.022;2023-09-18T14:30:22;21.20;55.70
5779;DHT22;2916;49.798;10.022;2023-09-18T14:32:55;21.40;52.70
5779;DHT22;2916;49.798;10.022;2023-09-18T14:35:22;21.40;38.00
5779;DHT22;2916;49.798;10.022;2023-09-18T14:37:49;21.50;47.90
5779;DHT22;2916;49.798;10.022;2023-09-18T14:40:16;21.60;41.60
5779;DHT22;2916;49.798;10.022;2023-09-18T14:42:46;21.50;35.60
5779;DHT22;2916;49.798;10.022;2023-09-18T14:45:13;21.60;36.00
5779;DHT22;2916;49.798;10.022;2023-09-18T14:47:42;21.60;38.10
5779;DHT22;2916;49.798;10.022;2023-09-18T14:50:09;21.60;32.30
5779;DHT22;2916;49.798;10.022;2023-09-18T14:52:36;21.40;31.70
5779;DHT22;2916;49.798;10.022;2023-09-18T14:55:03;21.40;32.20
5779;DHT22;2916;49.798;10.022;2023-09-18T14:57:31;21.50;34.20
5779;DHT22;2916;49.798;10.022;2023-09-18T14:59:58;21.50;33.70
5779;DHT22;2916;49.798;10.022;2023-09-18T15:02:25;21.60;29.20
5779;DHT22;2916;49.798;10.022;2023-09-18T15:04:57;21.70;29.90
5779;DHT22;2916;49.798;10.022;2023-09-18T15:07:25;21.80;26.70
5779;DHT22;2916;49.798;10.022;2023-09-18T15:09:53;21.90;22.60
5779;DHT22;2916;49.798;10.022;2023-09-18T15:12:20;21.80;18.20
5779;DHT22;2916;49.798;10.022;2023-09-18T15:14:48;21.90;17.10
5779;DHT22;2916;49.798;10.022;2023-09-18T15:17:15;21.90;14.60
5779;DHT22;2916;49.798;10.022;2023-09-18T15:19:42;21.80;11.20
5779;DHT22;2916;49.798;10.022;2023-09-18T15:22:10;21.80;16.80
5779;DHT22;2916;49.798;10.022;2023-09-18T15:24:37;21.80;12.90
5779;DHT22;2916;49.798;10.022;2023-09-18T15:27:04;21.80;9.40
5779;DHT22;2916;49.798;10.022;2023-09-18T15:29:31;21.70;8.80
5779;DHT22;2916;49.798;10.022;2023-09-18T15:31:58;21.70;6.90
5779;DHT22;2916;49.798;10.022;2023-09-18T15:34:27;21.60;5.80
5779;DHT22;2916;49.798;10.022;2023-09-18T15:36:55;21.60;7.60
5779;DHT22;2916;49.798;10.022;2023-09-18T15:39:23;21.50;6.10
5779;DHT22;2916;49.798;10.022;2023-09-18T15:41:52;21.70;7.80
5779;DHT22;2916;49.798;10.022;2023-09-18T15:44:20;21.70;6.40
5779;DHT22;2916;49.798;10.022;2023-09-18T15:46:47;21.70;3.70
5779;DHT22;2916;49.798;10.022;2023-09-18T15:49:14;21.80;3.80
5779;DHT22;2916;49.798;10.022;2023-09-18T15:51:41;21.70;1.70
5779;DHT22;2916;49.798;10.022;2023-09-18T15:54:08;21.60;5.20
5779;DHT22;2916;49.798;10.022;2023-09-18T15:56:37;21.60;1.40
5779;DHT22;2916;49.798;10.022;2023-09-18T15:59:06;21.60;1.00